sensor_id;sensor_type;location;lat;lon;timestamp;P1;durP1;ratioP1;P2;durP2;ratioP2
9846;SDS011;4962;50.084;8.794;2022-09-30T00:00:55;0.20;;;0.20;;
9846;SDS011;4962;50.084;8.794;2022-09-30T00:03:22;0.25;;;0.25;;
9846;SDS011;4962;50.084;8.794;2022-09-30T00:05:54;0.20;;;0.20;;
9846;SDS011;4962;50.084;8.794;2022-09-30T00:08:22;0.20;;;0.20;;
9846;SDS011;4962;50.084;8.794;2022-09-30T00:10:58;0.13;;;0.13;;
9846;SDS011;4962;50.084;8.794;2022-09-30T00:13:26;0.10;;;0.10;;
9846;SDS011;4962;50.084;8.794;2022-09-30T00:15:53;0.20;;;0.20;;
9846;SDS011;4962;50.084;8.794;2022-09-30T00:18:20;0.20;;;0.20;;
9846;SDS011;4962;50.084;8.794;2022-09-30T00:20:47;0.17;;;0.17;;
9846;SDS011;4962;50.084;8.794;2022-09-30T00:23:14;0.20;;;0.20;;
9846;SDS011;4962;50.084;8.794;2022-09-30T00:25:41;0.30;;;0.30;;
9846;SDS011;4962;50.084;8.794;2022-09-30T00:28:09;0.10;;;0.10;;
9846;SDS011;4962;50.084;8.794;2022-09-30T00:30:36;0.20;;;0.20;;
9846;SDS011;4962;50.084;8.794;2022-09-30T00:33:03;0.30;;;0.30;;
9846;SDS011;4962;50.084;8.794;2022-09-30T00:35:29;0.10;;;0.10;;
9846;SDS011;4962;50.084;8.794;2022-09-30T00:37:56;0.30;;;0.30;;
9846;SDS011;4962;50.084;8.794;2022-09-30T00:40:23;0.20;;;0.20;;
9846;SDS011;4962;50.084;8.794;2022-09-30T00:42:51;0.20;;;0.20;;
9846;SDS011;4962;50.084;8.794;2022-09-30T00:45:19;0.20;;;0.20;;
9846;SDS011;4962;50.084;8.794;2022-09-30T00:47:50;0.10;;;0.10;;
9846;SDS011;4962;50.084;8.794;2022-09-30T00:50:33;0.20;;;0.20;;
9846;SDS011;4962;50.084;8.794;2022-09-30T00:53:07;0.20;;;0.20;;
9846;SDS011;4962;50.084;8.794;2022-09-30T00:55:41;0.10;;;0.10;;
9846;SDS011;4962;50.084;8.794;2022-09-30T00:58:14;0.10;;;0.10;;
9846;SDS011;4962;50.084;8.794;2022-09-30T01:00:45;0.15;;;0.15;;
9846;SDS011;4962;50.084;8.794;2022-09-30T01:03:14;0.10;;;0.10;;
9846;SDS011;4962;50.084;8.794;2022-09-30T01:05:42;0.20;;;0.20;;
9846;SDS011;4962;50.084;8.794;2022-09-30T01:08:09;0.20;;;0.20;;
9846;SDS011;4962;50.084;8.794;2022-09-30T01:10:36;0.20;;;0.20;;
9846;SDS011;4962;50.084;8.794;2022-09-30T01:13:03;0.20;;;0.20;;
9846;SDS011;4962;50.084;8.794;2022-09-30T01:15:37;0.17;;;0.17;;
9846;SDS011;4962;50.084;8.794;2022-09-30T01:18:19;0.20;;;0.20;;
9846;SDS011;4962;50.084;8.794;2022-09-30T01:20:53;0.20;;;0.20;;
9846;SDS011;4962;50.084;8.794;2022-09-30T01:23:46;0.20;;;0.20;;
9846;SDS011;4962;50.084;8.794;2022-09-30T01:26:45;0.10;;;0.10;;
9846;SDS011;4962;50.084;8.794;2022-09-30T01:32:30;0.20;;;0.20;;
9846;SDS011;4962;50.084;8.794;2022-09-30T01:35:26;0.20;;;0.20;;
9846;SDS011;4962;50.084;8.794;2022-09-30T01:38:02;0.28;;;0.28;;
9846;SDS011;4962;50.084;8.794;2022-09-30T01:40:37;0.10;;;0.10;;
9846;SDS011;4962;50.084;8.794;2022-09-30T01:43:13;0.20;;;0.20;;
9846;SDS011;4962;50.084;8.794;2022-09-30T01:45:51;0.20;;;0.20;;
9846;SDS011;4962;50.084;8.794;2022-09-30T01:48:26;0.10;;;0.10;;
9846;SDS011;4962;50.084;8.794;2022-09-30T01:51:02;0.20;;;0.20;;
9846;SDS011;4962;50.084;8.794;2022-09-30T01:53:34;0.20;;;0.20;;
9846;SDS011;4962;50.084;8.794;2022-09-30T01:56:11;0.20;;;0.20;;
9846;SDS011;4962;50.084;8.794;2022-09-30T01:58:42;0.20;;;0.20;;
9846;SDS011;4962;50.084;8.794;2022-09-30T02:01:17;0.20;;;0.20;;
9846;SDS011;4962;50.084;8.794;2022-09-30T02:03:51;0.30;;;0.30;;
9846;SDS011;4962;50.084;8.794;2022-09-30T02:06:23;0.10;;;0.10;;
9846;SDS011;4962;50.084;8.794;2022-09-30T02:08:54;0.17;;;0.17;;
9846;SDS011;4962;50.084;8.794;2022-09-30T02:11:24;0.20;;;0.20;;
9846;SDS011;4962;50.084;8.794;2022-09-30T02:13:55;0.20;;;0.20;;
9846;SDS011;4962;50.084;8.794;2022-09-30T02:16:30;0.20;;;0.20;;
9846;SDS011;4962;50.084;8.794;2022-09-30T02:19:05;0.10;;;0.10;;
9846;SDS011;4962;50.084;8.794;2022-09-30T02:21:39;0.20;;;0.20;;
9846;SDS011;4962;50.084;8.794;2022-09-30T02:24:11;0.20;;;0.20;;
9846;SDS011;4962;50.084;8.794;2022-09-30T02:26:41;0.10;;;0.10;;
9846;SDS011;4962;50.084;8.794;2022-09-30T02:29:11;0.20;;;0.20;;
9846;SDS011;4962;50.084;8.794;2022-09-30T02:31:43;0.13;;;0.13;;
9846;SDS011;4962;50.084;8.794;2022-09-30T02:34:17;0.25;;;0.25;;
9846;SDS011;4962;50.084;8.794;2022-09-30T02:36:48;0.10;;;0.10;;
9846;SDS011;4962;50.084;8.794;2022-09-30T02:39:19;0.20;;;0.20;;
9846;SDS011;4962;50.084;8.794;2022-09-30T02:41:54;0.20;;;0.20;;
9846;SDS011;4962;50.084;8.794;2022-09-30T02:44:30;0.10;;;0.10;;
9846;SDS011;4962;50.084;8.794;2022-09-30T02:46:59;0.20;;;0.20;;
9846;SDS011;4962;50.084;8.794;2022-09-30T02:49:35;0.13;;;0.13;;
9846;SDS011;4962;50.084;8.794;2022-09-30T02:52:10;0.20;;;0.20;;
9846;SDS011;4962;50.084;8.794;2022-09-30T02:54:47;0.10;;;0.10;;
9846;SDS011;4962;50.084;8.794;2022-09-30T02:57:26;0.20;;;0.20;;
9846;SDS011;4962;50.084;8.794;2022-09-30T03:00:01;0.20;;;0.20;;
9846;SDS011;4962;50.084;8.794;2022-09-30T03:02:28;0.20;;;0.20;;
9846;SDS011;4962;50.084;8.794;2022-09-30T03:04:57;0.20;;;0.20;;
9846;SDS011;4962;50.084;8.794;2022-09-30T03:07:24;0.10;;;0.10;;
9846;SDS011;4962;50.084;8.794;2022-09-30T03:09:54;0.30;;;0.30;;
9846;SDS011;4962;50.084;8.794;2022-09-30T03:12:24;0.20;;;0.20;;
9846;SDS011;4962;50.084;8.794;2022-09-30T03:15:07;0.20;;;0.20;;
9846;SDS011;4962;50.084;8.794;2022-09-30T03:17:59;0.10;;;0.10;;
9846;SDS011;4962;50.084;8.794;2022-09-30T03:20:43;0.20;;;0.20;;
9846;SDS011;4962;50.084;8.794;2022-09-30T03:23:28;0.20;;;0.20;;
9846;SDS011;4962;50.084;8.794;2022-09-30T03:26:08;0.28;;;0.28;;
9846;SDS011;4962;50.084;8.794;2022-09-30T03:28:44;0.20;;;0.20;;
9846;SDS011;4962;50.084;8.794;2022-09-30T03:31:20;0.20;;;0.20;;
9846;SDS011;4962;50.084;8.794;2022-09-30T03:33:53;0.20;;;0.20;;
9846;SDS011;4962;50.084;8.794;2022-09-30T03:36:28;0.20;;;0.20;;
9846;SDS011;4962;50.084;8.794;2022-09-30T03:39:05;0.20;;;0.20;;
9846;SDS011;4962;50.084;8.794;2022-09-30T03:41:43;0.20;;;0.20;;
9846;SDS011;4962;50.084;8.794;2022-09-30T03:44:14;0.20;;;0.20;;
9846;SDS011;4962;50.084;8.794;2022-09-30T03:46:45;0.30;;;0.30;;
9846;SDS011;4962;50.084;8.794;2022-09-30T03:49:17;0.20;;;0.20;;
9846;SDS011;4962;50.084;8.794;2022-09-30T03:51:49;0.30;;;0.30;;
9846;SDS011;4962;50.084;8.794;2022-09-30T03:54:16;0.10;;;0.10;;
9846;SDS011;4962;50.084;8.794;2022-09-30T03:56:43;0.30;;;0.30;;
9846;SDS011;4962;50.084;8.794;2022-09-30T03:59:10;0.17;;;0.17;;
9846;SDS011;4962;50.084;8.794;2022-09-30T04:01:42;0.20;;;0.20;;
9846;SDS011;4962;50.084;8.794;2022-09-30T04:04:08;0.20;;;0.20;;
9846;SDS011;4962;50.084;8.794;2022-09-30T04:06:37;0.10;;;0.10;;
9846;SDS011;4962;50.084;8.794;2022-09-30T04:09:05;0.20;;;0.20;;
9846;SDS011;4962;50.084;8.794;2022-09-30T04:11:32;0.20;;;0.20;;
9846;SDS011;4962;50.084;8.794;2022-09-30T04:13:59;0.20;;;0.20;;
9846;SDS011;4962;50.084;8.794;2022-09-30T04:16:27;0.20;;;0.20;;
9846;SDS011;4962;50.084;8.794;2022-09-30T04:18:54;0.30;;;0.30;;
9846;SDS011;4962;50.084;8.794;2022-09-30T04:21:21;0.20;;;0.20;;
9846;SDS011;4962;50.084;8.794;2022-09-30T04:23:49;0.20;;;0.20;;
9846;SDS011;4962;50.084;8.794;2022-09-30T04:26:17;0.20;;;0.20;;
9846;SDS011;4962;50.084;8.794;2022-09-30T04:28:45;0.20;;;0.20;;
9846;SDS011;4962;50.084;8.794;2022-09-30T04:31:12;0.20;;;0.20;;
9846;SDS011;4962;50.084;8.794;2022-09-30T04:33:41;0.30;;;0.30;;
9846;SDS011;4962;50.084;8.794;2022-09-30T04:36:09;0.20;;;0.20;;
9846;SDS011;4962;50.084;8.794;2022-09-30T04:38:36;0.30;;;0.30;;
9846;SDS011;4962;50.084;8.794;2022-09-30T04:41:03;0.20;;;0.20;;
9846;SDS011;4962;50.084;8.794;2022-09-30T04:43:33;0.17;;;0.17;;
9846;SDS011;4962;50.084;8.794;2022-09-30T04:46:00;0.20;;;0.20;;
9846;SDS011;4962;50.084;8.794;2022-09-30T04:48:27;0.10;;;0.10;;
9846;SDS011;4962;50.084;8.794;2022-09-30T04:50:56;0.10;;;0.10;;
9846;SDS011;4962;50.084;8.794;2022-09-30T04:53:23;0.20;;;0.20;;
9846;SDS011;4962;50.084;8.794;2022-09-30T04:55:50;0.30;;;0.30;;
9846;SDS011;4962;50.084;8.794;2022-09-30T04:58:23;0.20;;;0.20;;
9846;SDS011;4962;50.084;8.794;2022-09-30T05:00:51;0.20;;;0.20;;
9846;SDS011;4962;50.084;8.794;2022-09-30T05:03:25;0.20;;;0.20;;
9846;SDS011;4962;50.084;8.794;2022-09-30T05:05:52;0.20;;;0.20;;
9846;SDS011;4962;50.084;8.794;2022-09-30T05:08:19;0.20;;;0.20;;
9846;SDS011;4962;50.084;8.794;2022-09-30T05:10:51;0.20;;;0.20;;
9846;SDS011;4962;50.084;8.794;2022-09-30T05:13:21;0.20;;;0.20;;
9846;SDS011;4962;50.084;8.794;2022-09-30T05:15:48;0.20;;;0.20;;
9846;SDS011;4962;50.084;8.794;2022-09-30T05:18:17;0.20;;;0.20;;
9846;SDS011;4962;50.084;8.794;2022-09-30T05:20:44;0.20;;;0.20;;
9846;SDS011;4962;50.084;8.794;2022-09-30T05:23:13;0.20;;;0.20;;
9846;SDS011;4962;50.084;8.794;2022-09-30T05:25:40;0.20;;;0.20;;
9846;SDS011;4962;50.084;8.794;2022-09-30T05:28:07;0.20;;;0.20;;
9846;SDS011;4962;50.084;8.794;2022-09-30T05:30:34;0.10;;;0.10;;
9846;SDS011;4962;50.084;8.794;2022-09-30T05:33:01;0.10;;;0.10;;
9846;SDS011;4962;50.084;8.794;2022-09-30T05:35:29;0.13;;;0.13;;
9846;SDS011;4962;50.084;8.794;2022-09-30T05:37:57;0.20;;;0.20;;
9846;SDS011;4962;50.084;8.794;2022-09-30T05:40:24;0.10;;;0.10;;
9846;SDS011;4962;50.084;8.794;2022-09-30T05:42:51;0.30;;;0.30;;
9846;SDS011;4962;50.084;8.794;2022-09-30T05:45:18;0.20;;;0.20;;
9846;SDS011;4962;50.084;8.794;2022-09-30T05:47:49;0.30;;;0.30;;
9846;SDS011;4962;50.084;8.794;2022-09-30T05:50:17;0.20;;;0.20;;
9846;SDS011;4962;50.084;8.794;2022-09-30T05:52:46;0.25;;;0.25;;
9846;SDS011;4962;50.084;8.794;2022-09-30T05:55:13;0.30;;;0.30;;
9846;SDS011;4962;50.084;8.794;2022-09-30T05:57:40;0.10;;;0.10;;
9846;SDS011;4962;50.084;8.794;2022-09-30T06:00:08;0.20;;;0.20;;
9846;SDS011;4962;50.084;8.794;2022-09-30T06:02:36;0.30;;;0.30;;
9846;SDS011;4962;50.084;8.794;2022-09-30T06:05:03;0.20;;;0.20;;
9846;SDS011;4962;50.084;8.794;2022-09-30T06:07:31;0.30;;;0.30;;
9846;SDS011;4962;50.084;8.794;2022-09-30T06:10:01;0.13;;;0.13;;
9846;SDS011;4962;50.084;8.794;2022-09-30T06:12:28;0.10;;;0.10;;
9846;SDS011;4962;50.084;8.794;2022-09-30T06:14:55;0.20;;;0.20;;
9846;SDS011;4962;50.084;8.794;2022-09-30T06:17:22;0.20;;;0.20;;
9846;SDS011;4962;50.084;8.794;2022-09-30T06:19:49;0.20;;;0.20;;
9846;SDS011;4962;50.084;8.794;2022-09-30T06:22:16;0.20;;;0.20;;
9846;SDS011;4962;50.084;8.794;2022-09-30T06:24:43;0.30;;;0.30;;
9846;SDS011;4962;50.084;8.794;2022-09-30T06:27:12;0.20;;;0.20;;
9846;SDS011;4962;50.084;8.794;2022-09-30T06:29:39;0.40;;;0.40;;
9846;SDS011;4962;50.084;8.794;2022-09-30T06:32:06;0.20;;;0.20;;
9846;SDS011;4962;50.084;8.794;2022-09-30T06:34:32;0.20;;;0.20;;
9846;SDS011;4962;50.084;8.794;2022-09-30T06:36:59;0.30;;;0.30;;
9846;SDS011;4962;50.084;8.794;2022-09-30T06:39:26;0.20;;;0.20;;
9846;SDS011;4962;50.084;8.794;2022-09-30T06:41:53;0.20;;;0.20;;
9846;SDS011;4962;50.084;8.794;2022-09-30T06:44:21;0.20;;;0.20;;
9846;SDS011;4962;50.084;8.794;2022-09-30T06:46:48;0.20;;;0.20;;
9846;SDS011;4962;50.084;8.794;2022-09-30T06:49:15;0.20;;;0.20;;
9846;SDS011;4962;50.084;8.794;2022-09-30T06:51:42;0.20;;;0.20;;
9846;SDS011;4962;50.084;8.794;2022-09-30T06:54:09;0.20;;;0.20;;
9846;SDS011;4962;50.084;8.794;2022-09-30T06:56:37;0.20;;;0.20;;
9846;SDS011;4962;50.084;8.794;2022-09-30T06:59:04;0.20;;;0.20;;
9846;SDS011;4962;50.084;8.794;2022-09-30T07:01:32;0.20;;;0.20;;
9846;SDS011;4962;50.084;8.794;2022-09-30T07:03:59;0.10;;;0.10;;
9846;SDS011;4962;50.084;8.794;2022-09-30T07:06:32;0.10;;;0.10;;
9846;SDS011;4962;50.084;8.794;2022-09-30T07:08:58;0.10;;;0.10;;
9846;SDS011;4962;50.084;8.794;2022-09-30T07:11:25;0.10;;;0.10;;
9846;SDS011;4962;50.084;8.794;2022-09-30T07:13:52;0.10;;;0.10;;
9846;SDS011;4962;50.084;8.794;2022-09-30T07:16:19;0.10;;;0.10;;
9846;SDS011;4962;50.084;8.794;2022-09-30T07:18:47;0.10;;;0.10;;
9846;SDS011;4962;50.084;8.794;2022-09-30T07:21:14;0.10;;;0.10;;
9846;SDS011;4962;50.084;8.794;2022-09-30T07:23:42;0.10;;;0.10;;
9846;SDS011;4962;50.084;8.794;2022-09-30T07:26:12;0.10;;;0.10;;
9846;SDS011;4962;50.084;8.794;2022-09-30T07:28:39;0.10;;;0.10;;
9846;SDS011;4962;50.084;8.794;2022-09-30T07:31:08;0.10;;;0.10;;
9846;SDS011;4962;50.084;8.794;2022-09-30T07:33:37;0.10;;;0.10;;
9846;SDS011;4962;50.084;8.794;2022-09-30T07:36:07;0.07;;;0.07;;
9846;SDS011;4962;50.084;8.794;2022-09-30T07:38:35;0.00;;;0.00;;
9846;SDS011;4962;50.084;8.794;2022-09-30T07:41:05;0.00;;;0.00;;
9846;SDS011;4962;50.084;8.794;2022-09-30T07:43:34;0.10;;;0.10;;
9846;SDS011;4962;50.084;8.794;2022-09-30T07:46:04;0.00;;;0.00;;
9846;SDS011;4962;50.084;8.794;2022-09-30T07:48:32;0.10;;;0.10;;
9846;SDS011;4962;50.084;8.794;2022-09-30T07:51:10;0.07;;;0.07;;
9846;SDS011;4962;50.084;8.794;2022-09-30T07:53:39;0.00;;;0.00;;
9846;SDS011;4962;50.084;8.794;2022-09-30T07:56:06;0.10;;;0.10;;
9846;SDS011;4962;50.084;8.794;2022-09-30T07:58:34;0.00;;;0.00;;
9846;SDS011;4962;50.084;8.794;2022-09-30T08:01:01;0.10;;;0.10;;
9846;SDS011;4962;50.084;8.794;2022-09-30T08:03:31;0.10;;;0.10;;
9846;SDS011;4962;50.084;8.794;2022-09-30T08:06:02;0.10;;;0.10;;
9846;SDS011;4962;50.084;8.794;2022-09-30T08:08:31;0.10;;;0.10;;
9846;SDS011;4962;50.084;8.794;2022-09-30T08:10:58;0.10;;;0.10;;
9846;SDS011;4962;50.084;8.794;2022-09-30T08:13:25;0.10;;;0.10;;
9846;SDS011;4962;50.084;8.794;2022-09-30T08:15:52;0.10;;;0.10;;
9846;SDS011;4962;50.084;8.794;2022-09-30T08:18:19;0.10;;;0.10;;
9846;SDS011;4962;50.084;8.794;2022-09-30T08:20:46;0.10;;;0.10;;
9846;SDS011;4962;50.084;8.794;2022-09-30T08:23:13;0.10;;;0.10;;
9846;SDS011;4962;50.084;8.794;2022-09-30T08:25:42;0.10;;;0.10;;
9846;SDS011;4962;50.084;8.794;2022-09-30T08:28:09;0.10;;;0.10;;
9846;SDS011;4962;50.084;8.794;2022-09-30T08:30:36;0.10;;;0.10;;
9846;SDS011;4962;50.084;8.794;2022-09-30T08:33:04;0.10;;;0.10;;
9846;SDS011;4962;50.084;8.794;2022-09-30T08:35:31;0.00;;;0.00;;
9846;SDS011;4962;50.084;8.794;2022-09-30T08:38:00;0.10;;;0.10;;
9846;SDS011;4962;50.084;8.794;2022-09-30T08:40:27;0.10;;;0.10;;
9846;SDS011;4962;50.084;8.794;2022-09-30T08:43:02;0.10;;;0.10;;
9846;SDS011;4962;50.084;8.794;2022-09-30T08:45:48;0.00;;;0.00;;
9846;SDS011;4962;50.084;8.794;2022-09-30T08:48:28;0.10;;;0.10;;
9846;SDS011;4962;50.084;8.794;2022-09-30T08:51:15;0.10;;;0.10;;
9846;SDS011;4962;50.084;8.794;2022-09-30T08:53:53;0.10;;;0.10;;
9846;SDS011;4962;50.084;8.794;2022-09-30T08:56:22;0.10;;;0.10;;
9846;SDS011;4962;50.084;8.794;2022-09-30T08:58:52;0.10;;;0.10;;
9846;SDS011;4962;50.084;8.794;2022-09-30T09:01:24;0.10;;;0.10;;
9846;SDS011;4962;50.084;8.794;2022-09-30T09:03:55;0.10;;;0.10;;
9846;SDS011;4962;50.084;8.794;2022-09-30T09:06:25;0.10;;;0.10;;
9846;SDS011;4962;50.084;8.794;2022-09-30T09:09:09;0.10;;;0.10;;
9846;SDS011;4962;50.084;8.794;2022-09-30T09:11:58;0.10;;;0.10;;
9846;SDS011;4962;50.084;8.794;2022-09-30T09:14:36;0.10;;;0.10;;
9846;SDS011;4962;50.084;8.794;2022-09-30T09:17:11;0.10;;;0.10;;
9846;SDS011;4962;50.084;8.794;2022-09-30T09:19:48;0.10;;;0.10;;
9846;SDS011;4962;50.084;8.794;2022-09-30T09:22:22;0.10;;;0.10;;
9846;SDS011;4962;50.084;8.794;2022-09-30T09:24:50;0.10;;;0.10;;
9846;SDS011;4962;50.084;8.794;2022-09-30T09:27:19;0.10;;;0.10;;
9846;SDS011;4962;50.084;8.794;2022-09-30T09:29:54;0.10;;;0.10;;
9846;SDS011;4962;50.084;8.794;2022-09-30T09:32:29;0.10;;;0.10;;
9846;SDS011;4962;50.084;8.794;2022-09-30T09:34:57;0.13;;;0.13;;
9846;SDS011;4962;50.084;8.794;2022-09-30T09:37:28;0.10;;;0.10;;
9846;SDS011;4962;50.084;8.794;2022-09-30T09:40:22;0.10;;;0.10;;
9846;SDS011;4962;50.084;8.794;2022-09-30T09:42:57;0.10;;;0.10;;
9846;SDS011;4962;50.084;8.794;2022-09-30T09:45:35;0.10;;;0.10;;
9846;SDS011;4962;50.084;8.794;2022-09-30T09:48:07;0.10;;;0.10;;
9846;SDS011;4962;50.084;8.794;2022-09-30T09:50:38;0.00;;;0.00;;
9846;SDS011;4962;50.084;8.794;2022-09-30T09:53:14;0.10;;;0.10;;
9846;SDS011;4962;50.084;8.794;2022-09-30T09:55:59;0.10;;;0.10;;
9846;SDS011;4962;50.084;8.794;2022-09-30T09:59:07;0.10;;;0.10;;
9846;SDS011;4962;50.084;8.794;2022-09-30T10:01:39;0.10;;;0.10;;
9846;SDS011;4962;50.084;8.794;2022-09-30T10:04:12;0.10;;;0.10;;
9846;SDS011;4962;50.084;8.794;2022-09-30T10:06:43;0.10;;;0.10;;
9846;SDS011;4962;50.084;8.794;2022-09-30T10:09:20;0.10;;;0.10;;
9846;SDS011;4962;50.084;8.794;2022-09-30T10:14:51;0.10;;;0.10;;
9846;SDS011;4962;50.084;8.794;2022-09-30T10:17:26;0.10;;;0.10;;
9846;SDS011;4962;50.084;8.794;2022-09-30T10:19:56;0.10;;;0.10;;
9846;SDS011;4962;50.084;8.794;2022-09-30T10:22:26;0.10;;;0.10;;
9846;SDS011;4962;50.084;8.794;2022-09-30T10:25:08;0.10;;;0.10;;
9846;SDS011;4962;50.084;8.794;2022-09-30T10:27:47;0.10;;;0.10;;
9846;SDS011;4962;50.084;8.794;2022-09-30T10:30:37;0.10;;;0.10;;
9846;SDS011;4962;50.084;8.794;2022-09-30T10:33:13;0.10;;;0.10;;
9846;SDS011;4962;50.084;8.794;2022-09-30T10:35:49;0.10;;;0.10;;
9846;SDS011;4962;50.084;8.794;2022-09-30T10:38:20;0.10;;;0.10;;
9846;SDS011;4962;50.084;8.794;2022-09-30T10:40:50;0.10;;;0.10;;
9846;SDS011;4962;50.084;8.794;2022-09-30T10:43:19;0.00;;;0.00;;
9846;SDS011;4962;50.084;8.794;2022-09-30T10:45:48;0.10;;;0.10;;
9846;SDS011;4962;50.084;8.794;2022-09-30T10:48:19;0.10;;;0.10;;
9846;SDS011;4962;50.084;8.794;2022-09-30T10:50:50;0.05;;;0.05;;
9846;SDS011;4962;50.084;8.794;2022-09-30T10:53:19;0.03;;;0.03;;
9846;SDS011;4962;50.084;8.794;2022-09-30T10:55:49;0.00;;;0.00;;
9846;SDS011;4962;50.084;8.794;2022-09-30T10:58:25;0.00;;;0.00;;
9846;SDS011;4962;50.084;8.794;2022-09-30T11:00:56;0.05;;;0.05;;
9846;SDS011;4962;50.084;8.794;2022-09-30T11:03:33;0.00;;;0.00;;
9846;SDS011;4962;50.084;8.794;2022-09-30T11:06:04;0.00;;;0.00;;
9846;SDS011;4962;50.084;8.794;2022-09-30T11:08:34;0.00;;;0.00;;
9846;SDS011;4962;50.084;8.794;2022-09-30T11:11:08;0.10;;;0.10;;
9846;SDS011;4962;50.084;8.794;2022-09-30T11:13:40;0.00;;;0.00;;
9846;SDS011;4962;50.084;8.794;2022-09-30T11:16:11;0.00;;;0.00;;
9846;SDS011;4962;50.084;8.794;2022-09-30T11:18:48;0.00;;;0.00;;
9846;SDS011;4962;50.084;8.794;2022-09-30T11:21:20;0.00;;;0.00;;
9846;SDS011;4962;50.084;8.794;2022-09-30T11:23:50;0.00;;;0.00;;
9846;SDS011;4962;50.084;8.794;2022-09-30T11:26:24;0.00;;;0.00;;
9846;SDS011;4962;50.084;8.794;2022-09-30T11:29:05;0.00;;;0.00;;
9846;SDS011;4962;50.084;8.794;2022-09-30T11:31:40;0.00;;;0.00;;
9846;SDS011;4962;50.084;8.794;2022-09-30T11:34:23;0.00;;;0.00;;
9846;SDS011;4962;50.084;8.794;2022-09-30T11:37:03;0.10;;;0.10;;
9846;SDS011;4962;50.084;8.794;2022-09-30T11:39:41;0.10;;;0.10;;
9846;SDS011;4962;50.084;8.794;2022-09-30T11:42:20;0.10;;;0.10;;
9846;SDS011;4962;50.084;8.794;2022-09-30T11:44:54;0.00;;;0.00;;
9846;SDS011;4962;50.084;8.794;2022-09-30T11:47:31;0.10;;;0.10;;
9846;SDS011;4962;50.084;8.794;2022-09-30T11:53:07;0.05;;;0.05;;
9846;SDS011;4962;50.084;8.794;2022-09-30T11:55:44;0.00;;;0.00;;
9846;SDS011;4962;50.084;8.794;2022-09-30T11:58:22;0.10;;;0.10;;
9846;SDS011;4962;50.084;8.794;2022-09-30T12:00:54;0.00;;;0.00;;
9846;SDS011;4962;50.084;8.794;2022-09-30T12:03:24;0.00;;;0.00;;
9846;SDS011;4962;50.084;8.794;2022-09-30T12:06:01;0.00;;;0.00;;
9846;SDS011;4962;50.084;8.794;2022-09-30T12:08:36;0.00;;;0.00;;
9846;SDS011;4962;50.084;8.794;2022-09-30T12:11:11;0.00;;;0.00;;
9846;SDS011;4962;50.084;8.794;2022-09-30T12:13:45;0.00;;;0.00;;
9846;SDS011;4962;50.084;8.794;2022-09-30T12:16:17;0.00;;;0.00;;
9846;SDS011;4962;50.084;8.794;2022-09-30T12:18:47;0.00;;;0.00;;
9846;SDS011;4962;50.084;8.794;2022-09-30T12:21:22;0.00;;;0.00;;
9846;SDS011;4962;50.084;8.794;2022-09-30T12:23:53;0.10;;;0.10;;
9846;SDS011;4962;50.084;8.794;2022-09-30T12:26:27;0.10;;;0.10;;
9846;SDS011;4962;50.084;8.794;2022-09-30T12:28:56;0.10;;;0.10;;
9846;SDS011;4962;50.084;8.794;2022-09-30T12:31:57;0.00;;;0.00;;
9846;SDS011;4962;50.084;8.794;2022-09-30T12:34:42;0.00;;;0.00;;
9846;SDS011;4962;50.084;8.794;2022-09-30T12:37:33;0.00;;;0.00;;
9846;SDS011;4962;50.084;8.794;2022-09-30T12:43:02;0.00;;;0.00;;
9846;SDS011;4962;50.084;8.794;2022-09-30T12:48:35;0.00;;;0.00;;
9846;SDS011;4962;50.084;8.794;2022-09-30T12:51:06;0.05;;;0.05;;
9846;SDS011;4962;50.084;8.794;2022-09-30T12:53:35;0.10;;;0.10;;
9846;SDS011;4962;50.084;8.794;2022-09-30T12:56:04;0.10;;;0.10;;
9846;SDS011;4962;50.084;8.794;2022-09-30T12:58:33;0.00;;;0.00;;
9846;SDS011;4962;50.084;8.794;2022-09-30T13:01:06;0.10;;;0.10;;
9846;SDS011;4962;50.084;8.794;2022-09-30T13:03:44;0.10;;;0.10;;
9846;SDS011;4962;50.084;8.794;2022-09-30T13:06:15;0.10;;;0.10;;
9846;SDS011;4962;50.084;8.794;2022-09-30T13:08:46;0.10;;;0.10;;
9846;SDS011;4962;50.084;8.794;2022-09-30T13:11:31;0.10;;;0.10;;
9846;SDS011;4962;50.084;8.794;2022-09-30T13:14:02;0.10;;;0.10;;
9846;SDS011;4962;50.084;8.794;2022-09-30T13:17:24;0.00;;;0.00;;
9846;SDS011;4962;50.084;8.794;2022-09-30T13:19:52;0.10;;;0.10;;
9846;SDS011;4962;50.084;8.794;2022-09-30T13:25:23;0.10;;;0.10;;
9846;SDS011;4962;50.084;8.794;2022-09-30T13:27:51;0.10;;;0.10;;
9846;SDS011;4962;50.084;8.794;2022-09-30T13:30:33;0.00;;;0.00;;
9846;SDS011;4962;50.084;8.794;2022-09-30T13:36:05;0.10;;;0.10;;
9846;SDS011;4962;50.084;8.794;2022-09-30T13:38:41;0.10;;;0.10;;
9846;SDS011;4962;50.084;8.794;2022-09-30T13:41:17;0.00;;;0.00;;
9846;SDS011;4962;50.084;8.794;2022-09-30T13:43:51;0.10;;;0.10;;
9846;SDS011;4962;50.084;8.794;2022-09-30T13:46:27;0.00;;;0.00;;
9846;SDS011;4962;50.084;8.794;2022-09-30T13:49:00;0.10;;;0.10;;
9846;SDS011;4962;50.084;8.794;2022-09-30T13:51:31;0.00;;;0.00;;
9846;SDS011;4962;50.084;8.794;2022-09-30T13:53:59;0.00;;;0.00;;
9846;SDS011;4962;50.084;8.794;2022-09-30T13:56:35;0.00;;;0.00;;
9846;SDS011;4962;50.084;8.794;2022-09-30T13:59:26;0.08;;;0.08;;
9846;SDS011;4962;50.084;8.794;2022-09-30T14:02:25;0.03;;;0.03;;
9846;SDS011;4962;50.084;8.794;2022-09-30T14:05:22;0.00;;;0.00;;
9846;SDS011;4962;50.084;8.794;2022-09-30T14:08:14;0.05;;;0.05;;
9846;SDS011;4962;50.084;8.794;2022-09-30T14:11:00;0.00;;;0.00;;
9846;SDS011;4962;50.084;8.794;2022-09-30T14:13:41;0.10;;;0.10;;
9846;SDS011;4962;50.084;8.794;2022-09-30T14:16:31;0.10;;;0.10;;
9846;SDS011;4962;50.084;8.794;2022-09-30T14:19:18;0.00;;;0.00;;
9846;SDS011;4962;50.084;8.794;2022-09-30T14:22:02;0.03;;;0.03;;
9846;SDS011;4962;50.084;8.794;2022-09-30T14:24:32;0.00;;;0.00;;
9846;SDS011;4962;50.084;8.794;2022-09-30T14:27:08;0.10;;;0.10;;
9846;SDS011;4962;50.084;8.794;2022-09-30T14:29:51;0.00;;;0.00;;
9846;SDS011;4962;50.084;8.794;2022-09-30T14:32:26;0.10;;;0.10;;
9846;SDS011;4962;50.084;8.794;2022-09-30T14:34:55;0.10;;;0.10;;
9846;SDS011;4962;50.084;8.794;2022-09-30T14:37:25;0.10;;;0.10;;
9846;SDS011;4962;50.084;8.794;2022-09-30T14:39:55;0.10;;;0.10;;
9846;SDS011;4962;50.084;8.794;2022-09-30T14:42:24;0.05;;;0.05;;
9846;SDS011;4962;50.084;8.794;2022-09-30T14:44:57;0.05;;;0.05;;
9846;SDS011;4962;50.084;8.794;2022-09-30T14:47:29;0.10;;;0.10;;
9846;SDS011;4962;50.084;8.794;2022-09-30T14:49:58;0.00;;;0.00;;
9846;SDS011;4962;50.084;8.794;2022-09-30T14:52:34;0.00;;;0.00;;
9846;SDS011;4962;50.084;8.794;2022-09-30T14:55:03;0.10;;;0.10;;
9846;SDS011;4962;50.084;8.794;2022-09-30T14:57:42;0.10;;;0.10;;
9846;SDS011;4962;50.084;8.794;2022-09-30T15:00:23;0.10;;;0.10;;
9846;SDS011;4962;50.084;8.794;2022-09-30T15:02:53;0.15;;;0.15;;
9846;SDS011;4962;50.084;8.794;2022-09-30T15:05:20;0.10;;;0.10;;
9846;SDS011;4962;50.084;8.794;2022-09-30T15:07:48;0.10;;;0.10;;
9846;SDS011;4962;50.084;8.794;2022-09-30T15:10:16;0.10;;;0.10;;
9846;SDS011;4962;50.084;8.794;2022-09-30T15:12:46;0.10;;;0.10;;
9846;SDS011;4962;50.084;8.794;2022-09-30T15:21:11;0.10;;;0.10;;
9846;SDS011;4962;50.084;8.794;2022-09-30T15:23:40;0.10;;;0.10;;
9846;SDS011;4962;50.084;8.794;2022-09-30T15:26:10;0.10;;;0.10;;
9846;SDS011;4962;50.084;8.794;2022-09-30T15:28:38;0.10;;;0.10;;
9846;SDS011;4962;50.084;8.794;2022-09-30T15:31:12;0.10;;;0.10;;
9846;SDS011;4962;50.084;8.794;2022-09-30T15:33:47;0.10;;;0.10;;
9846;SDS011;4962;50.084;8.794;2022-09-30T15:36:15;0.10;;;0.10;;
9846;SDS011;4962;50.084;8.794;2022-09-30T15:38:45;0.10;;;0.10;;
9846;SDS011;4962;50.084;8.794;2022-09-30T15:41:13;0.10;;;0.10;;
9846;SDS011;4962;50.084;8.794;2022-09-30T15:43:41;0.10;;;0.10;;
9846;SDS011;4962;50.084;8.794;2022-09-30T15:46:19;0.10;;;0.10;;
9846;SDS011;4962;50.084;8.794;2022-09-30T15:48:50;0.03;;;0.03;;
9846;SDS011;4962;50.084;8.794;2022-09-30T15:51:22;0.10;;;0.10;;
9846;SDS011;4962;50.084;8.794;2022-09-30T15:53:54;0.00;;;0.00;;
9846;SDS011;4962;50.084;8.794;2022-09-30T15:56:25;0.10;;;0.10;;
9846;SDS011;4962;50.084;8.794;2022-09-30T15:58:58;0.13;;;0.13;;
9846;SDS011;4962;50.084;8.794;2022-09-30T16:01:32;0.10;;;0.10;;
9846;SDS011;4962;50.084;8.794;2022-09-30T16:04:01;0.10;;;0.10;;
9846;SDS011;4962;50.084;8.794;2022-09-30T16:06:34;0.10;;;0.10;;
9846;SDS011;4962;50.084;8.794;2022-09-30T16:09:17;0.10;;;0.10;;
9846;SDS011;4962;50.084;8.794;2022-09-30T16:11:46;0.10;;;0.10;;
9846;SDS011;4962;50.084;8.794;2022-09-30T16:14:23;0.10;;;0.10;;